Time;durP1;ratioP1;P1;durP2;ratioP2;P2;SDS_P1;SDS_P2;PMS_P1;PMS_P2;Temp;Humidity;BMP_temperature;BMP_pressure;BME280_temperature;BME280_humidity;BME280_pressure;Samples;Min_cycle;Max_cycle;Signal;HPM_P1;HPM_P2
2022/07/08 00:00:54;;;;;;;2.37;1.40;;;;;;;17.96;69.21;100446.34;5590694;31;34597;-66
2022/07/08 00:03:57;;;;;;;3.00;1.70;;;;;;;17.98;69.09;100438.06;5584224;31;33918;-67
2022/07/08 00:06:59;;;;;;;2.80;1.60;;;;;;;17.90;69.49;100425.75;5590695;31;34045;-68
2022/07/08 00:10:04;;;;;;;3.15;1.45;;;;;;;17.84;70.04;100433.81;5590586;31;33956;-68
2022/07/08 00:13:07;;;;;;;2.67;1.50;;;;;;;17.73;70.32;100429.94;5590757;31;34263;-67
2022/07/08 00:16:10;;;;;;;3.17;1.33;;;;;;;17.74;70.51;100432.41;5590519;31;35249;-68
2022/07/08 00:19:14;;;;;;;2.35;1.50;;;;;;;17.69;70.88;100434.09;5577126;31;33866;-68
2022/07/08 00:22:17;;;;;;;4.72;1.50;;;;;;;17.57;71.31;100431.19;5590471;31;34279;-67
2022/07/08 00:25:20;;;;;;;3.28;1.40;;;;;;;17.53;71.85;100429.16;5590471;31;34693;-68
2022/07/08 00:28:23;;;;;;;3.05;1.80;;;;;;;17.46;72.45;100431.03;5590113;31;34647;-69
2022/07/08 00:31:25;;;;;;;3.42;1.58;;;;;;;17.57;71.95;100436.56;5575790;31;34574;-69
2022/07/08 00:34:28;;;;;;;4.50;2.05;;;;;;;17.41;72.54;100438.91;5590477;31;32846;-68
2022/07/08 00:37:31;;;;;;;2.05;1.40;;;;;;;17.30;73.07;100433.16;5590281;31;33925;-68
2022/07/08 00:40:34;;;;;;;5.25;1.40;;;;;;;17.32;73.16;100441.81;5590270;31;34032;-67
2022/07/08 00:43:39;;;;;;;2.45;1.62;;;;;;;17.31;73.50;100442.84;5576257;31;34066;-67
2022/07/08 00:46:42;;;;;;;4.78;1.65;;;;;;;17.19;74.23;100435.62;5590205;31;34146;-68
2022/07/08 00:49:44;;;;;;;4.10;1.60;;;;;;;17.12;74.63;100427.63;5590138;31;34716;-68
2022/07/08 00:52:48;;;;;;;2.67;1.70;;;;;;;17.12;74.82;100427.63;5590170;31;34726;-66
2022/07/08 00:55:51;;;;;;;3.50;1.60;;;;;;;17.10;74.87;100420.81;5590280;31;33863;-67
2022/07/08 00:58:55;;;;;;;3.08;1.75;;;;;;;17.11;74.88;100417.94;5576398;31;34555;-68
2022/07/08 01:01:58;;;;;;;2.45;1.62;;;;;;;17.13;74.98;100423.91;5590081;31;33954;-68
2022/07/08 01:05:02;;;;;;;2.28;1.27;;;;;;;17.06;75.21;100416.91;5590055;31;33894;-69
2022/07/08 01:08:05;;;;;;;3.12;1.60;;;;;;;17.07;75.28;100421.25;5590042;31;34092;-66
2022/07/08 01:11:09;;;;;;;3.50;1.67;;;;;;;17.01;75.64;100420.22;5590031;31;35263;-69
2022/07/08 01:14:12;;;;;;;3.42;1.65;;;;;;;17.00;75.70;100423.91;5589949;31;34270;-68
2022/07/08 01:17:15;;;;;;;2.67;1.70;;;;;;;16.98;75.80;100417.97;5589956;31;35168;-67
2022/07/08 01:20:18;;;;;;;3.35;1.73;;;;;;;16.92;76.27;100424.97;5590018;31;34664;-68
2022/07/08 01:23:21;;;;;;;3.17;1.80;;;;;;;16.90;76.27;100418.97;5589884;31;35231;-68
2022/07/08 01:26:24;;;;;;;4.60;1.80;;;;;;;16.87;76.47;100422.09;5576103;31;33924;-67
2022/07/08 01:29:27;;;;;;;2.30;1.73;;;;;;;16.82;76.68;100421.88;5589647;31;33877;-66
2022/07/08 01:32:34;;;;;;;2.30;1.45;;;;;;;16.85;76.69;100426.00;5589993;31;34031;-66
2022/07/08 01:35:37;;;;;;;3.47;1.58;;;;;;;16.82;76.64;100427.25;5589814;31;34012;-68
2022/07/08 01:38:40;;;;;;;3.25;1.70;;;;;;;16.85;76.75;100418.78;5590178;31;35350;-68
2022/07/08 01:41:43;;;;;;;2.72;1.50;;;;;;;16.75;77.22;100418.38;5589721;31;33901;-68
2022/07/08 01:44:45;;;;;;;3.53;1.73;;;;;;;16.78;77.20;100423.34;5576171;31;34844;-68
2022/07/08 01:47:48;;;;;;;4.25;1.90;;;;;;;16.75;77.51;100422.94;5589716;31;34668;-66
2022/07/08 01:50:51;;;;;;;5.28;1.80;;;;;;;16.68;77.74;100414.06;5589689;31;34041;-68
2022/07/08 01:53:54;;;;;;;2.42;1.50;;;;;;;16.64;77.80;100423.53;5589637;31;33971;-67
2022/07/08 01:57:15;;;;;;;2.30;1.60;;;;;;;16.69;77.95;100423.75;5589677;31;34359;-68
2022/07/08 02:00:18;;;;;;;2.83;2.00;;;;;;;16.67;77.85;100413.22;5589657;31;34260;-68
2022/07/08 02:03:21;;;;;;;1.95;1.40;;;;;;;16.63;77.87;100422.72;5589594;31;34689;-68
2022/07/08 02:06:24;;;;;;;4.75;1.73;;;;;;;16.62;78.09;100410.34;5575789;31;33883;-67
2022/07/08 02:09:27;;;;;;;2.60;1.85;;;;;;;16.63;77.97;100422.72;5589594;31;33934;-67
2022/07/08 02:12:30;;;;;;;2.25;1.60;;;;;;;16.63;77.90;100419.22;5589514;31;33870;-68
2022/07/08 02:15:32;;;;;;;3.17;1.65;;;;;;;16.70;77.40;100426.19;5589447;31;34136;-68
2022/07/08 02:18:35;;;;;;;4.72;1.67;;;;;;;16.63;77.77;100428.06;5589778;31;34022;-67
2022/07/08 02:21:39;;;;;;;2.53;1.42;;;;;;;16.60;78.10;100425.81;5589438;31;34362;-67
2022/07/08 02:24:41;;;;;;;2.92;1.75;;;;;;;16.57;77.87;100426.19;5589343;31;34142;-66
2022/07/08 02:27:44;;;;;;;3.67;1.62;;;;;;;16.55;78.11;100428.25;5589237;31;34249;-69
2022/07/08 02:30:46;;;;;;;2.75;1.60;;;;;;;16.58;77.86;100425.19;5589062;31;34553;-68
2022/07/08 02:33:49;;;;;;;1.70;1.60;;;;;;;16.64;77.96;100432.41;5589235;31;33973;-68
2022/07/08 02:36:52;;;;;;;4.68;1.65;;;;;;;16.59;77.91;100423.34;5575456;31;34560;-67
2022/07/08 02:39:55;;;;;;;2.22;1.48;;;;;;;16.57;78.05;100436.91;5589210;31;33923;-67
2022/07/08 02:42:57;;;;;;;3.30;1.67;;;;;;;16.58;78.12;100427.00;5589343;31;34185;-68
2022/07/08 02:46:00;;;;;;;2.47;1.40;;;;;;;16.58;77.96;100437.72;5588970;31;34262;-68
2022/07/08 02:49:03;;;;;;;2.72;1.50;;;;;;;16.61;77.81;100440.00;5589262;31;34052;-68
2022/07/08 02:52:06;;;;;;;2.42;1.60;;;;;;;16.59;77.79;100442.09;5589273;31;35230;-68
2022/07/08 02:55:09;;;;;;;3.53;1.40;;;;;;;16.61;77.64;100440.00;5588115;31;33979;-69
2022/07/08 02:58:12;;;;;;;1.50;1.40;;;;;;;16.63;77.09;100433.44;5588861;31;33908;-67
2022/07/08 03:01:14;;;;;;;1.62;1.40;;;;;;;16.67;76.78;100431.97;5588805;31;33921;-68
2022/07/08 03:04:17;;;;;;;2.37;1.48;;;;;;;16.66;77.00;100445.56;5588724;31;34256;-68
2022/07/08 03:07:20;;;;;;;2.12;1.85;;;;;;;16.72;76.61;100444.75;5588961;31;34621;-69
2022/07/08 03:10:24;;;;;;;2.40;1.80;;;;;;;16.72;77.01;100448.25;5588664;31;33902;-67
2022/07/08 03:13:27;;;;;;;4.32;1.60;;;;;;;16.58;77.67;100445.75;5588551;31;34185;-67
2022/07/08 03:16:30;;;;;;;2.22;1.48;;;;;;;16.46;78.50;100450.87;5588389;31;34192;-69
2022/07/08 03:19:32;;;;;;;2.50;1.42;;;;;;;16.43;79.06;100445.94;5588382;31;33874;-68
2022/07/08 03:22:35;;;;;;;2.95;1.70;;;;;;;16.44;79.05;100444.94;5574286;31;32742;-69
2022/07/08 03:25:38;;;;;;;2.08;1.65;;;;;;;16.38;79.58;100438.53;5588255;31;34627;-68
2022/07/08 03:28:41;;;;;;;2.92;1.70;;;;;;;16.38;79.72;100448.41;5588103;31;33950;-67
2022/07/08 03:31:44;;;;;;;3.20;1.80;;;;;;;16.30;80.23;100454.78;5588157;31;34588;-68
2022/07/08 03:34:47;;;;;;;3.25;1.95;;;;;;;16.26;80.59;100455.41;5588147;31;35130;-68
2022/07/08 03:37:49;;;;;;;4.50;1.85;;;;;;;16.26;80.68;100458.06;5588058;31;33931;-67
2022/07/08 03:44:13;;;;;;;4.00;1.65;;;;;;;16.29;80.35;100453.13;5588046;31;34378;-67
2022/07/08 03:47:16;;;;;;;2.10;1.90;;;;;;;16.34;80.41;100445.31;5587811;31;33558;-67
2022/07/08 03:50:19;;;;;;;1.85;1.70;;;;;;;16.31;80.33;100455.62;5587904;31;33868;-68
2022/07/08 03:53:22;;;;;;;2.92;1.80;;;;;;;16.28;80.31;100443.44;5574060;31;34002;-68
2022/07/08 03:56:24;;;;;;;3.87;1.70;;;;;;;16.35;80.15;100456.84;5573970;31;34182;-68
2022/07/08 03:59:27;;;;;;;3.20;1.80;;;;;;;16.34;80.20;100456.03;5573940;31;34044;-68
2022/07/08 04:02:30;;;;;;;2.30;1.60;;;;;;;16.37;80.02;100460.97;5587784;31;35219;-68
2022/07/08 04:05:33;;;;;;;2.22;1.65;;;;;;;16.40;79.78;100463.25;5588508;31;34013;-68
2022/07/08 04:08:35;;;;;;;3.05;2.15;;;;;;;16.41;79.80;100464.09;5590929;31;33953;-68
2022/07/08 04:11:38;;;;;;;2.42;1.70;;;;;;;16.50;79.63;100471.72;5576731;31;32725;-68
2022/07/08 04:14:41;;;;;;;4.78;1.75;;;;;;;16.47;79.58;100472.09;5590466;31;34288;-68
2022/07/08 04:17:43;;;;;;;2.60;1.98;;;;;;;16.45;79.95;100476.03;5590452;31;34158;-68
2022/07/08 04:20:46;;;;;;;3.72;1.90;;;;;;;16.49;79.92;100471.91;5590400;31;34010;-67
2022/07/08 04:23:49;;;;;;;4.12;1.77;;;;;;;16.48;79.99;100479.12;5590387;31;33980;-68
2022/07/08 04:26:52;;;;;;;3.45;1.80;;;;;;;16.46;80.03;100473.12;5590473;31;34008;-69
2022/07/08 04:29:55;;;;;;;3.28;1.45;;;;;;;16.42;80.33;100484.44;5590601;31;33057;-68
2022/07/08 04:32:57;;;;;;;3.10;2.03;;;;;;;16.51;79.96;100483.22;5590306;31;34650;-68
2022/07/08 04:36:00;;;;;;;2.37;1.55;;;;;;;16.60;79.65;100482.06;5576473;31;33960;-68
2022/07/08 04:39:03;;;;;;;2.12;1.80;;;;;;;16.77;79.62;100490.50;5590801;31;33901;-69
2022/07/08 04:42:06;;;;;;;4.10;1.80;;;;;;;16.81;78.97;100491.75;5590140;31;34607;-67
2022/07/08 04:45:09;;;;;;;4.32;2.00;;;;;;;16.78;78.82;100495.69;5590460;31;33927;-68
2022/07/08 04:48:12;;;;;;;2.28;1.70;;;;;;;16.77;79.25;100507.41;5590089;31;34467;-68
2022/07/08 04:51:15;;;;;;;3.67;1.87;;;;;;;16.74;79.27;100496.28;5590058;31;34080;-68
2022/07/08 04:54:18;;;;;;;2.50;1.58;;;;;;;16.86;79.13;100502.69;5590166;31;34013;-68
2022/07/08 04:57:21;;;;;;;3.35;1.60;;;;;;;16.92;78.45;100497.34;5590509;31;34024;-68
2022/07/08 05:00:24;;;;;;;3.17;1.60;;;;;;;16.87;78.56;100510.53;5590109;31;34607;-68
2022/07/08 05:03:27;;;;;;;3.45;1.70;;;;;;;16.89;78.98;100511.13;5589770;31;34038;-69
2022/07/08 05:06:37;;;;;;;3.90;1.80;;;;;;;16.92;78.65;100510.72;5590433;31;34052;-68
2022/07/08 05:09:40;;;;;;;3.10;2.10;;;;;;;16.90;78.72;100518.13;5590006;31;33945;-68
2022/07/08 05:12:45;;;;;;;5.40;1.80;;;;;;;17.06;78.46;100516.09;5589875;31;33893;-68
2022/07/08 05:15:47;;;;;;;3.97;1.77;;;;;;;16.98;78.50;100527.03;5575820;31;34479;-68
2022/07/08 05:18:50;;;;;;;4.70;1.77;;;;;;;17.05;78.12;100519.78;5589746;31;34841;-69
2022/07/08 05:21:53;;;;;;;2.62;1.70;;;;;;;17.35;77.21;100523.69;5589822;31;34381;-68
2022/07/08 05:24:55;;;;;;;2.47;1.60;;;;;;;17.37;76.97;100529.69;5583385;31;34596;-68
2022/07/08 05:27:58;;;;;;;5.28;2.12;;;;;;;17.43;76.41;100525.34;5575818;31;34387;-68
2022/07/08 05:31:01;;;;;;;5.85;1.80;;;;;;;17.49;76.45;100528.00;5589519;31;34036;-68
2022/07/08 05:34:04;;;;;;;2.10;1.52;;;;;;;17.49;76.09;100529.84;5590213;31;33928;-67
2022/07/08 05:37:07;;;;;;;3.17;1.73;;;;;;;17.43;76.80;100531.50;5589831;31;35252;-68
2022/07/08 05:40:11;;;;;;;3.25;2.15;;;;;;;17.40;77.17;100529.25;5576074;31;34741;-70
2022/07/08 05:43:14;;;;;;;7.15;1.73;;;;;;;17.65;75.75;100532.13;5589708;31;34688;-68
2022/07/08 05:46:16;;;;;;;5.18;1.90;;;;;;;17.87;74.69;100533.50;5589810;31;34033;-68
2022/07/08 05:49:19;;;;;;;3.40;1.80;;;;;;;18.01;74.19;100535.09;5589813;31;34159;-68
2022/07/08 05:52:22;;;;;;;3.85;1.73;;;;;;;18.07;73.32;100536.13;5589298;31;34611;-68
2022/07/08 05:55:25;;;;;;;5.68;1.70;;;;;;;17.95;73.77;100535.97;5589341;31;34659;-68
2022/07/08 05:58:27;;;;;;;2.15;1.70;;;;;;;17.87;74.05;100546.09;5589697;31;35391;-68
2022/07/08 06:01:31;;;;;;;4.28;1.70;;;;;;;18.03;73.91;100551.84;5589477;31;33963;-69
2022/07/08 06:04:49;;;;;;;2.00;1.60;;;;;;;18.04;73.35;100558.03;5589599;31;34170;-68
2022/07/08 06:07:52;;;;;;;2.50;1.50;;;;;;;18.07;73.02;100569.16;5589433;31;34574;-68
2022/07/08 06:10:56;;;;;;;4.53;1.80;;;;;;;18.22;72.51;100561.69;5589376;31;33934;-68
2022/07/08 06:13:59;;;;;;;4.65;1.90;;;;;;;18.19;72.59;100559.44;5589575;31;33895;-68
2022/07/08 06:17:06;;;;;;;3.03;1.50;;;;;;;18.08;73.11;100564.62;5589428;31;34007;-68
2022/07/08 06:20:09;;;;;;;3.85;1.37;;;;;;;18.20;72.58;100571.00;5589311;31;34213;-69
2022/07/08 06:23:12;;;;;;;2.50;1.62;;;;;;;18.34;72.11;100567.22;5575590;31;34054;-68
2022/07/08 06:26:15;;;;;;;2.08;1.60;;;;;;;18.60;71.17;100567.09;5575427;31;33470;-69
2022/07/08 06:29:18;;;;;;;2.37;1.73;;;;;;;18.84;69.39;100565.50;5588261;31;34531;-68
2022/07/08 06:32:21;;;;;;;3.92;1.55;;;;;;;18.82;69.42;100572.16;5589541;31;33934;-68
2022/07/08 06:35:24;;;;;;;5.97;1.67;;;;;;;18.87;70.36;100566.94;5589202;31;34536;-68
2022/07/08 06:38:26;;;;;;;3.47;1.60;;;;;;;19.25;68.42;100569.56;5589249;31;33999;-68
2022/07/08 06:41:31;;;;;;;2.95;1.30;;;;;;;19.57;67.72;100575.69;5575084;31;33070;-68
2022/07/08 06:44:33;;;;;;;4.95;1.55;;;;;;;19.90;65.30;100570.78;5588955;31;34115;-69
2022/07/08 06:47:36;;;;;;;3.00;1.40;;;;;;;19.98;64.69;100567.00;5575334;31;35211;-68
2022/07/08 06:50:38;;;;;;;3.78;1.42;;;;;;;20.22;63.58;100577.69;5588694;31;34828;-69
2022/07/08 06:57:05;;;;;;;2.40;1.48;;;;;;;20.33;63.59;100576.94;5588796;31;34024;-69
2022/07/08 07:00:08;;;;;;;1.98;1.40;;;;;;;20.38;62.95;100573.59;5588803;31;34246;-68
2022/07/08 07:03:26;;;;;;;4.40;1.55;;;;;;;20.48;62.71;100568.47;5589084;31;33984;-69
2022/07/08 07:06:30;;;;;;;2.83;1.48;;;;;;;20.85;61.13;100568.38;5589077;31;34746;-69
2022/07/08 07:09:32;;;;;;;5.95;1.70;;;;;;;21.19;60.05;100570.38;5588528;31;34129;-69
2022/07/08 07:12:35;;;;;;;1.40;1.20;;;;;;;21.33;57.73;100563.69;5588436;31;34087;-67
2022/07/08 07:15:38;;;;;;;2.80;1.50;;;;;;;21.56;57.83;100570.97;5588645;31;33809;-67
2022/07/08 07:18:41;;;;;;;2.53;1.42;;;;;;;22.05;55.43;100572.34;5588476;31;33905;-68
2022/07/08 07:21:43;;;;;;;1.23;1.12;;;;;;;22.02;54.80;100575.53;5588225;31;35512;-68
2022/07/08 07:24:46;;;;;;;2.62;1.40;;;;;;;22.31;53.13;100577.22;5588291;31;34026;-69
2022/07/08 07:27:49;;;;;;;2.00;1.40;;;;;;;22.36;52.99;100574.62;5588045;31;33991;-68
2022/07/08 07:30:52;;;;;;;3.53;1.52;;;;;;;22.39;52.58;100566.03;5588148;31;33969;-66
2022/07/08 07:33:55;;;;;;;1.87;1.15;;;;;;;22.37;52.36;100573.56;5587982;31;33909;-68
2022/07/08 07:36:57;;;;;;;6.50;1.42;;;;;;;22.62;51.92;100580.50;5574340;31;33988;-66
2022/07/08 07:40:02;;;;;;;1.58;1.30;;;;;;;23.06;50.65;100576.19;5588989;31;33987;-66
2022/07/08 07:43:05;;;;;;;4.00;1.42;;;;;;;23.26;49.81;100571.94;5590703;31;34640;-65
2022/07/08 07:46:08;;;;;;;2.30;1.50;;;;;;;23.93;47.95;100576.47;5590673;31;34609;-66
2022/07/08 07:49:11;;;;;;;3.20;1.30;;;;;;;24.67;45.71;100578.50;5576930;31;33860;-66
2022/07/08 07:52:13;;;;;;;3.25;1.45;;;;;;;24.58;45.45;100580.03;5576635;31;34828;-65
2022/07/08 07:55:16;;;;;;;1.80;1.20;;;;;;;24.64;44.41;100581.69;5576875;31;35277;-66
2022/07/08 07:58:19;;;;;;;1.98;1.35;;;;;;;24.68;44.31;100588.28;5576755;31;33909;-67
2022/07/08 08:01:22;;;;;;;3.37;1.37;;;;;;;25.07;42.93;100580.81;5590558;31;34610;-67
2022/07/08 08:04:25;;;;;;;5.10;1.35;;;;;;;26.33;40.43;100588.19;5590516;31;34666;-67
2022/07/08 08:07:28;;;;;;;7.72;1.27;;;;;;;26.12;40.57;100575.56;5590348;31;33987;-66
2022/07/08 08:10:31;;;;;;;3.08;1.27;;;;;;;25.86;40.61;100580.03;5590455;31;33984;-66
2022/07/08 08:13:34;;;;;;;4.68;1.60;;;;;;;25.78;40.46;100581.38;5590652;31;34010;-65
2022/07/08 08:16:37;;;;;;;1.92;1.27;;;;;;;26.42;39.57;100588.47;5576296;31;33105;-65
2022/07/08 08:19:39;;;;;;;2.55;1.23;;;;;;;25.70;40.32;100595.44;5590402;31;34590;-66
2022/07/08 08:22:42;;;;;;;1.50;1.25;;;;;;;26.35;39.50;100588.72;5590561;31;34255;-66
2022/07/08 08:26:05;;;;;;;5.90;1.10;;;;;;;27.83;36.37;100585.87;5590097;31;33948;-66
2022/07/08 08:29:08;;;;;;;2.37;1.30;;;;;;;28.33;34.27;100598.53;5575696;31;32687;-66
2022/07/08 08:32:10;;;;;;;1.87;1.12;;;;;;;27.45;35.79;100589.97;5589820;31;35249;-66
2022/07/08 08:35:14;;;;;;;1.65;1.45;;;;;;;27.83;35.81;100588.59;5563516;31;32374;-67
2022/07/08 08:38:17;;;;;;;2.20;1.20;;;;;;;29.07;33.93;100583.91;5590321;31;35225;-66
2022/07/08 08:41:20;;;;;;;1.33;1.10;;;;;;;29.03;34.32;100587.50;5563112;31;33908;-67
2022/07/08 08:44:23;;;;;;;5.25;1.10;;;;;;;29.76;31.83;100596.44;5576474;31;33837;-68
2022/07/08 08:47:31;;;;;;;1.92;1.00;;;;;;;30.16;31.98;100592.47;5576133;31;33939;-68
2022/07/08 08:50:54;;;;;;;2.97;1.30;;;;;;;29.99;31.68;100592.94;5589538;31;33922;-67
2022/07/08 08:53:58;;;;;;;2.12;1.12;;;;;;;28.51;34.75;100594.38;5589377;31;34745;-69
2022/07/08 08:57:01;;;;;;;2.65;1.15;;;;;;;29.68;32.54;100592.41;5589644;31;34290;-67
2022/07/08 09:00:05;;;;;;;2.75;1.00;;;;;;;29.35;32.99;100598.75;5589065;31;34212;-67
2022/07/08 09:03:08;;;;;;;2.95;1.05;;;;;;;30.58;30.87;100599.87;5589804;31;33856;-67
2022/07/08 09:06:11;;;;;;;3.55;1.12;;;;;;;29.67;32.43;100596.28;5589592;31;34031;-68
2022/07/08 09:09:14;;;;;;;1.83;1.05;;;;;;;28.93;34.18;100599.31;5589570;31;35240;-67
2022/07/08 09:12:22;;;;;;;4.85;1.50;;;;;;;28.92;34.77;100603.97;5575282;31;32389;-67
2022/07/08 09:15:34;;;;;;;5.40;1.55;;;;;;;29.02;35.17;100599.53;5562988;31;32409;-67
2022/07/08 09:18:40;;;;;;;2.20;1.12;;;;;;;29.20;34.94;100590.63;5562620;31;33199;-66
2022/07/08 09:21:52;;;;;;;3.08;1.27;;;;;;;29.88;32.45;100590.56;5589687;31;35223;-68
2022/07/08 09:24:56;;;;;;;1.33;0.95;;;;;;;31.42;29.31;100593.34;5575760;31;34696;-67
2022/07/08 09:27:59;;;;;;;1.40;1.00;;;;;;;31.89;29.08;100594.19;5589460;31;34031;-67
2022/07/08 09:31:07;;;;;;;4.45;1.15;;;;;;;31.59;28.84;100589.28;5562652;31;32473;-68
2022/07/08 09:34:11;;;;;;;3.05;1.10;;;;;;;30.52;30.38;100593.66;5575602;31;34543;-66
2022/07/08 09:37:16;;;;;;;2.15;1.05;;;;;;;31.35;29.46;100592.94;5576113;31;33856;-66
2022/07/08 09:40:19;;;;;;;6.10;1.20;;;;;;;29.86;31.48;100590.06;5589381;31;34476;-67
2022/07/08 09:43:26;;;;;;;2.40;1.10;;;;;;;30.55;30.05;100590.31;5576662;31;34041;-67
2022/07/08 09:46:36;;;;;;;2.75;1.20;;;;;;;30.24;30.35;100594.56;5589332;31;34184;-67
2022/07/08 09:49:44;;;;;;;3.00;1.15;;;;;;;30.64;29.82;100595.97;5589129;31;34280;-66
2022/07/08 09:52:50;;;;;;;3.58;1.30;;;;;;;31.66;28.02;100589.69;5589193;31;34388;-67
2022/07/08 09:55:56;;;;;;;4.30;1.10;;;;;;;31.46;28.79;100585.38;5589045;31;34244;-67
2022/07/08 09:58:59;;;;;;;4.25;1.20;;;;;;;31.15;29.07;100593.28;5588922;31;34258;-68
2022/07/08 10:02:04;;;;;;;5.70;1.40;;;;;;;30.66;29.96;100591.00;5589015;31;33978;-66
2022/07/08 10:05:07;;;;;;;2.67;1.00;;;;;;;31.86;28.01;100590.09;5589355;31;34653;-67
2022/07/08 10:08:10;;;;;;;1.67;0.95;;;;;;;31.65;27.83;100588.06;5562504;31;33743;-68
2022/07/08 10:11:14;;;;;;;4.28;1.23;;;;;;;31.74;27.89;100594.47;5589360;31;35213;-67
2022/07/08 10:14:18;;;;;;;1.20;1.00;;;;;;;31.25;28.41;100595.03;5575428;31;34653;-67
2022/07/08 10:17:22;;;;;;;3.10;1.05;;;;;;;31.93;27.00;100592.44;5589308;31;34065;-66
2022/07/08 10:20:31;;;;;;;3.47;1.10;;;;;;;31.76;27.71;100598.53;5575524;31;33956;-66
2022/07/08 10:23:49;;;;;;;2.87;1.48;;;;;;;29.23;30.92;100590.91;5575752;31;34083;-67
2022/07/08 10:26:56;;;;;;;2.80;1.40;;;;;;;28.34;32.52;100599.34;5589357;31;34155;-68
2022/07/08 10:30:20;;;;;;;4.68;1.25;;;;;;;27.67;33.28;100596.00;5584442;31;138423;-67
2022/07/08 10:33:30;;;;;;;3.10;1.30;;;;;;;27.16;34.66;100591.62;5589404;31;34044;-66
2022/07/08 10:36:49;;;;;;;2.60;1.30;;;;;;;28.53;33.31;100603.91;5589128;31;33924;-67
2022/07/08 10:39:53;;;;;;;1.50;1.02;;;;;;;28.19;32.75;100608.41;5589054;31;34052;-67
2022/07/08 10:43:26;;;;;;;2.58;1.23;;;;;;;28.60;32.24;100605.50;5576096;31;34680;-67
2022/07/08 10:46:30;;;;;;;2.50;1.20;;;;;;;29.55;30.59;100604.03;5579542;31;33907;-67
2022/07/08 10:49:46;;;;;;;2.40;1.27;;;;;;;28.69;31.48;100607.38;5588833;31;34594;-67
2022/07/08 10:52:51;;;;;;;1.62;1.20;;;;;;;27.63;33.45;100599.56;5588399;31;34505;-67
2022/07/08 10:55:53;;;;;;;3.67;1.37;;;;;;;28.39;33.13;100600.16;5574645;31;34653;-66
2022/07/08 10:59:21;;;;;;;1.42;1.20;;;;;;;28.15;33.25;100609.25;5588690;31;34513;-67
2022/07/08 11:02:26;;;;;;;3.90;1.50;;;;;;;27.23;34.21;100603.09;5588972;31;35205;-67
2022/07/08 11:05:36;;;;;;;3.50;1.20;;;;;;;26.72;35.63;100602.97;5588867;31;35243;-68
2022/07/08 11:08:58;;;;;;;4.22;1.60;;;;;;;27.82;34.00;100613.41;5588429;31;34597;-67
2022/07/08 11:12:02;;;;;;;2.00;1.15;;;;;;;27.39;35.09;100620.25;5588600;31;35291;-67
2022/07/08 11:15:14;;;;;;;4.35;1.30;;;;;;;27.26;35.35;100618.88;5575929;31;34593;-66
2022/07/08 11:18:24;;;;;;;2.85;1.40;;;;;;;27.09;35.28;100621.88;5590978;31;34332;-67
2022/07/08 11:21:27;;;;;;;2.20;1.20;;;;;;;27.42;34.94;100622.41;5590899;31;34159;-68
2022/07/08 11:24:30;;;;;;;1.30;1.00;;;;;;;27.77;34.92;100616.16;5591042;31;33960;-66
2022/07/08 11:27:34;;;;;;;2.85;1.25;;;;;;;27.20;35.01;100633.59;5590847;31;34387;-67
2022/07/08 11:30:40;;;;;;;3.08;1.23;;;;;;;27.38;35.03;100618.62;5590784;31;34252;-66
2022/07/08 11:33:43;;;;;;;5.70;1.20;;;;;;;27.75;34.09;100616.41;5577215;31;34474;-66
2022/07/08 11:36:57;;;;;;;5.05;1.60;;;;;;;26.95;35.33;100620.78;5563944;31;34156;-67
2022/07/08 11:40:01;;;;;;;2.28;1.37;;;;;;;27.48;34.68;100622.16;5590875;31;34476;-69
2022/07/08 11:43:06;;;;;;;2.72;1.27;;;;;;;27.29;34.88;100629.25;5577218;31;34316;-67
2022/07/08 11:46:22;;;;;;;4.93;1.20;;;;;;;27.52;34.08;100625.19;5577043;31;33339;-67
2022/07/08 11:49:25;;;;;;;2.87;1.40;;;;;;;27.50;34.26;100619.16;5590772;31;34294;-68
2022/07/08 11:52:29;;;;;;;2.95;1.10;;;;;;;28.28;33.35;100627.75;5576680;31;33277;-67
2022/07/08 11:55:43;;;;;;;5.85;1.30;;;;;;;28.42;33.11;100628.78;5590623;31;33723;-68
2022/07/08 11:58:47;;;;;;;1.98;1.20;;;;;;;28.85;31.61;100627.25;5563470;31;32545;-68
2022/07/08 12:01:52;;;;;;;0.95;0.80;;;;;;;28.92;31.10;100628.56;5590529;31;34843;-68
2022/07/08 12:04:55;;;;;;;3.15;1.30;;;;;;;29.09;30.03;100619.16;5564278;31;34306;-68
2022/07/08 12:07:57;;;;;;;5.30;0.98;;;;;;;29.06;30.23;100617.78;5576521;31;33126;-67
2022/07/08 12:11:14;;;;;;;2.50;1.30;;;;;;;28.74;30.94;100621.03;5576759;31;33728;-67
2022/07/08 12:14:17;;;;;;;1.65;1.00;;;;;;;28.96;31.26;100617.88;5576610;31;34250;-67
2022/07/08 12:17:27;;;;;;;4.55;1.10;;;;;;;27.93;30.86;100610.37;5577068;31;35156;-67
2022/07/08 12:20:31;;;;;;;6.47;1.10;;;;;;;28.79;30.85;100610.06;5576709;31;33829;-67
2022/07/08 12:23:43;;;;;;;1.67;1.10;;;;;;;31.35;27.44;100619.53;5590687;31;33866;-67
2022/07/08 12:27:07;;;;;;;1.83;0.98;;;;;;;31.85;25.56;100609.63;5575792;31;34016;-67
2022/07/08 12:30:11;;;;;;;2.50;1.00;;;;;;;32.60;24.98;100601.78;5590064;31;34346;-67
2022/07/08 12:33:27;;;;;;;5.28;1.20;;;;;;;32.45;25.58;100602.09;5590166;31;34495;-67
2022/07/08 12:36:32;;;;;;;1.60;0.90;;;;;;;32.87;24.87;100600.09;5589936;31;34752;-67
2022/07/08 12:39:35;;;;;;;1.92;1.00;;;;;;;35.49;22.13;100605.53;5563715;31;33837;-67
2022/07/08 12:42:38;;;;;;;3.33;1.00;;;;;;;35.21;22.13;100596.00;5590239;31;34287;-69
2022/07/08 12:45:41;;;;;;;8.23;1.50;;;;;;;32.57;24.93;100590.59;5590218;31;35255;-67
2022/07/08 12:48:45;;;;;;;4.70;1.08;;;;;;;29.22;29.69;100593.91;5590159;31;33926;-67
2022/07/08 12:51:49;;;;;;;2.72;1.37;;;;;;;27.60;33.08;100589.19;5589993;31;34042;-68
2022/07/08 12:54:52;;;;;;;8.07;1.80;;;;;;;26.94;35.38;100591.91;5589971;31;34053;-66
2022/07/08 12:57:56;;;;;;;3.03;1.42;;;;;;;26.75;36.64;100604.34;5590361;31;34063;-68
2022/07/08 13:00:58;;;;;;;6.22;1.42;;;;;;;26.27;38.19;100598.22;5589956;31;33903;-67
2022/07/08 13:04:03;;;;;;;2.90;1.52;;;;;;;26.16;38.70;100610.09;5589795;31;34225;-67
2022/07/08 13:07:11;;;;;;;2.17;1.48;;;;;;;26.12;38.94;100606.28;5589989;31;33979;-67
2022/07/08 13:10:14;;;;;;;3.80;1.42;;;;;;;25.58;40.21;100611.13;5590357;31;34607;-66
2022/07/08 13:13:17;;;;;;;3.15;1.50;;;;;;;26.02;40.02;100608.12;5589797;31;33880;-69
2022/07/08 13:16:19;;;;;;;3.28;2.20;;;;;;;26.39;39.06;100600.69;5589922;31;34162;-67
2022/07/08 13:19:23;;;;;;;4.43;1.40;;;;;;;26.39;39.24;100606.13;5589894;31;34114;-65
2022/07/08 13:22:25;;;;;;;6.12;1.50;;;;;;;26.32;38.43;100611.03;5575513;31;33069;-66
2022/07/08 13:25:28;;;;;;;4.20;1.60;;;;;;;26.43;38.47;100604.56;5589662;31;34608;-67
2022/07/08 13:28:32;;;;;;;2.35;1.48;;;;;;;26.62;38.11;100605.69;5589407;31;34587;-66
2022/07/08 13:31:35;;;;;;;3.17;1.20;;;;;;;26.89;37.66;100610.94;5575798;31;33908;-68
2022/07/08 13:34:37;;;;;;;1.80;1.30;;;;;;;27.06;37.24;100608.00;5589505;31;34626;-66
2022/07/08 13:38:00;;;;;;;1.65;1.25;;;;;;;27.08;37.60;100609.34;5572366;31;34005;-65
2022/07/08 13:41:03;;;;;;;4.37;1.45;;;;;;;26.67;37.87;100604.88;5589861;31;34132;-66
2022/07/08 13:44:06;;;;;;;3.97;1.60;;;;;;;26.50;38.39;100594.22;5589772;31;34429;-66
2022/07/08 13:47:09;;;;;;;2.03;1.60;;;;;;;26.83;37.95;100595.66;5590085;31;34586;-66
2022/07/08 13:50:12;;;;;;;2.78;1.55;;;;;;;26.84;37.88;100594.56;5589740;31;34029;-66
2022/07/08 13:53:14;;;;;;;3.42;1.37;;;;;;;26.78;38.18;100592.91;5589983;31;34045;-64
2022/07/08 13:56:18;;;;;;;5.15;1.40;;;;;;;26.85;37.21;100590.78;5589395;31;34482;-65
2022/07/08 13:59:21;;;;;;;4.62;1.55;;;;;;;26.71;37.77;100589.66;5589530;31;34146;-65
2022/07/08 14:02:24;;;;;;;2.12;1.40;;;;;;;26.79;37.38;100589.94;5589039;31;33961;-66
2022/07/08 14:05:27;;;;;;;1.83;1.30;;;;;;;27.11;37.12;100584.28;5589497;31;34830;-66
2022/07/08 14:08:30;;;;;;;3.05;1.73;;;;;;;26.77;37.23;100580.41;5589407;31;33878;-66
2022/07/08 14:11:43;;;;;;;1.50;1.37;;;;;;;27.17;36.28;100579.66;5576846;31;34314;-67
2022/07/08 14:14:47;;;;;;;2.10;1.40;;;;;;;30.16;31.37;100581.53;5589182;31;34224;-65
2022/07/08 14:17:50;;;;;;;5.85;1.62;;;;;;;31.79;28.84;100591.62;5589624;31;34549;-65
2022/07/08 14:20:53;;;;;;;6.00;1.45;;;;;;;31.04;29.80;100594.56;5589185;31;34617;-67
2022/07/08 14:23:56;;;;;;;3.42;1.50;;;;;;;31.49;28.98;100582.00;5568387;31;34048;-66